createdAt,value
2022-08-22T00:00:13.775Z,59.78
2022-08-22T00:02:42.590Z,55.06
2022-08-22T00:02:46.232Z,60.86
2022-08-22T00:03:07.259Z,56.52
2022-08-22T00:03:15.779Z,59.86
2022-08-22T00:05:49.438Z,58.98
2022-08-22T00:08:24.762Z,57.64
2022-08-22T00:11:03.537Z,58.10
2022-08-22T00:13:40.133Z,57.71
2022-08-22T00:16:17.753Z,58.21
2022-08-22T00:18:52.513Z,58.56
2022-08-22T00:21:28.057Z,58.45
2022-08-22T00:24:10.856Z,58.42
2022-08-22T00:26:45.568Z,57.57
2022-08-22T00:29:17.127Z,58.25
2022-08-22T00:31:51.701Z,57.83
2022-08-22T00:34:31.376Z,57.88
2022-08-22T00:37:06.164Z,58.52
2022-08-22T00:39:41.266Z,57.60
2022-08-22T00:42:29.050Z,58.27
2022-08-22T00:45:21.977Z,57.45
2022-08-22T00:48:04.614Z,56.77
2022-08-22T00:51:03.285Z,56.84
2022-08-22T00:53:54.495Z,57.23
2022-08-22T00:57:00.276Z,57.87
2022-08-22T01:00:00.784Z,57.16
2022-08-22T01:02:47.113Z,56.72
2022-08-22T01:05:33.281Z,57.43
2022-08-22T01:08:32.664Z,58.09
2022-08-22T01:11:16.605Z,57.33
2022-08-22T01:14:00.288Z,58.47
2022-08-22T01:16:50.884Z,58.55
2022-08-22T01:19:56.575Z,58.27
2022-08-22T01:23:09.116Z,58.33
2022-08-22T01:26:07.440Z,58.04
2022-08-22T01:29:11.303Z,58.57
2022-08-22T01:32:16.262Z,59.42
2022-08-22T01:35:19.963Z,58.83
2022-08-22T01:38:26.573Z,60.71
2022-08-22T01:41:29.192Z,60.96
2022-08-22T01:44:21.735Z,60.68
2022-08-22T01:47:00.160Z,59.87
2022-08-22T01:49:38.530Z,59.93
2022-08-22T01:52:11.030Z,61.54
2022-08-22T01:54:48.851Z,62.36
2022-08-22T01:57:18.910Z,62.45
2022-08-22T01:59:50.354Z,62.50
2022-08-22T02:02:31.313Z,60.81
2022-08-22T02:05:10.619Z,62.22
2022-08-22T02:07:49.000Z,63.50
2022-08-22T02:10:27.606Z,64.33
2022-08-22T02:13:05.230Z,64.54
2022-08-22T02:15:46.900Z,64.14
2022-08-22T02:18:26.054Z,64.47
2022-08-22T02:21:06.480Z,65.99
2022-08-22T02:23:45.812Z,65.27
2022-08-22T02:26:18.919Z,66.00
2022-08-22T02:28:57.368Z,65.99
2022-08-22T02:31:37.369Z,66.00
2022-08-22T02:34:24.489Z,66.06
2022-08-22T02:37:03.529Z,65.75
2022-08-22T02:39:38.135Z,65.86
2022-08-22T02:42:25.764Z,63.21
2022-08-22T02:45:02.809Z,65.83
2022-08-22T02:47:36.969Z,66.58
2022-08-22T02:50:17.517Z,66.70
2022-08-22T02:53:06.066Z,66.89
2022-08-22T02:55:43.749Z,66.80
2022-08-22T02:58:25.356Z,66.68
2022-08-22T03:01:15.089Z,66.37
2022-08-22T03:03:47.234Z,65.98
2022-08-22T03:06:35.854Z,65.00
2022-08-22T03:09:21.607Z,64.82
2022-08-22T03:12:01.479Z,66.19
2022-08-22T03:14:40.373Z,66.74
2022-08-22T03:17:18.523Z,66.30
2022-08-22T03:19:56.872Z,67.59
2022-08-22T03:22:33.888Z,68.73
2022-08-22T03:25:11.459Z,68.73
2022-08-22T03:27:49.487Z,68.49
2022-08-22T03:30:23.148Z,69.24
2022-08-22T03:32:56.576Z,69.40
2022-08-22T03:35:32.502Z,69.86
2022-08-22T03:38:18.366Z,68.67
2022-08-22T03:41:10.699Z,67.99
2022-08-22T03:43:56.390Z,66.34
2022-08-22T03:46:58.923Z,67.46
2022-08-22T03:50:15.206Z,66.27
2022-08-22T03:53:28.348Z,66.40
2022-08-22T03:56:38.440Z,67.30
2022-08-22T03:59:45.833Z,65.91
2022-08-22T04:02:49.018Z,67.09
2022-08-22T04:06:02.974Z,66.92
2022-08-22T04:09:03.454Z,67.70
2022-08-22T04:12:02.759Z,67.36
2022-08-22T04:15:09.613Z,67.14
2022-08-22T04:18:03.607Z,67.39
2022-08-22T04:21:09.940Z,70.11
2022-08-22T04:23:59.781Z,71.14
2022-08-22T04:26:38.126Z,71.17
2022-08-22T04:29:15.820Z,68.16
2022-08-22T04:31:48.720Z,71.07
2022-08-22T04:34:26.469Z,71.76
2022-08-22T04:36:58.048Z,73.89
2022-08-22T04:39:35.907Z,73.58
2022-08-22T04:42:31.112Z,76.93
2022-08-22T04:45:05.111Z,78.88
2022-08-22T04:47:39.137Z,79.23
2022-08-22T04:50:17.637Z,83.20
2022-08-22T04:53:04.486Z,86.45
2022-08-22T04:55:37.756Z,87.72
2022-08-22T04:58:19.710Z,90.19
2022-08-22T05:00:56.472Z,99.35
2022-08-22T05:03:30.238Z,100.00
2022-08-22T05:06:02.772Z,100.00
2022-08-22T05:08:36.164Z,100.00
2022-08-22T05:11:11.987Z,100.00
2022-08-22T05:13:44.968Z,100.00
2022-08-22T05:16:19.330Z,100.00
2022-08-22T05:18:52.378Z,100.00
2022-08-22T05:21:27.311Z,100.00
2022-08-22T05:24:00.438Z,100.00
2022-08-22T05:26:31.454Z,100.00
2022-08-22T05:29:04.212Z,100.00
2022-08-22T05:31:37.094Z,99.77
2022-08-22T05:34:11.446Z,88.78
2022-08-22T05:36:45.247Z,82.11
2022-08-22T05:39:15.953Z,77.77
2022-08-22T05:41:44.854Z,74.88
2022-08-22T05:44:20.403Z,76.94
2022-08-22T05:46:58.013Z,78.06
2022-08-22T05:49:36.202Z,75.11
2022-08-22T05:52:17.956Z,78.49
2022-08-22T05:54:55.094Z,82.54
2022-08-22T05:57:30.193Z,89.76
2022-08-22T06:00:05.334Z,91.88
2022-08-22T06:02:54.706Z,85.27
2022-08-22T06:05:27.230Z,76.90
2022-08-22T06:08:04.344Z,71.50
2022-08-22T06:10:41.229Z,70.88
2022-08-22T06:13:15.043Z,71.93
2022-08-22T06:15:51.842Z,67.42
2022-08-22T06:18:24.331Z,68.38
2022-08-22T06:20:56.685Z,65.12
2022-08-22T06:23:30.151Z,65.97
2022-08-22T06:26:02.024Z,64.68
2022-08-22T06:28:37.171Z,66.69
2022-08-22T06:31:21.397Z,62.55
2022-08-22T06:33:59.808Z,63.25
2022-08-22T06:36:31.784Z,62.36
2022-08-22T06:39:23.059Z,64.61
2022-08-22T06:41:54.019Z,63.82
2022-08-22T06:44:25.309Z,63.47
2022-08-22T06:46:56.936Z,65.90
2022-08-22T06:49:27.586Z,67.76
2022-08-22T06:52:02.247Z,65.94
2022-08-22T06:54:36.433Z,64.02
2022-08-22T06:57:06.815Z,67.11
2022-08-22T06:59:39.442Z,63.35
2022-08-22T07:02:18.356Z,61.49
2022-08-22T07:04:49.830Z,60.30
2022-08-22T07:07:20.086Z,59.67
2022-08-22T07:09:55.658Z,61.13
2022-08-22T07:12:29.251Z,59.59
2022-08-22T07:15:03.106Z,57.61
2022-08-22T07:17:36.866Z,59.62
2022-08-22T07:20:26.035Z,60.82
2022-08-22T07:22:57.515Z,59.22
2022-08-22T07:25:29.353Z,59.61
2022-08-22T07:28:15.895Z,59.02
2022-08-22T07:30:56.027Z,60.85
2022-08-22T07:33:42.455Z,61.08
2022-08-22T07:36:23.758Z,63.58
2022-08-22T07:39:17.580Z,65.70
2022-08-22T07:42:02.322Z,63.03
2022-08-22T07:44:38.715Z,63.14
2022-08-22T07:47:10.966Z,64.92
2022-08-22T07:49:49.656Z,65.70
2022-08-22T07:52:18.890Z,65.98
2022-08-22T07:54:53.192Z,62.86
2022-08-22T07:57:28.270Z,69.22
2022-08-22T07:59:59.441Z,72.04
2022-08-22T08:02:29.102Z,75.38
2022-08-22T08:05:01.378Z,77.25
2022-08-22T08:07:32.347Z,78.72
2022-08-22T08:10:11.248Z,72.34
2022-08-22T08:12:57.904Z,71.86
2022-08-22T08:15:35.222Z,74.24
2022-08-22T08:18:06.655Z,77.24
2022-08-22T08:20:36.826Z,77.59
2022-08-22T08:23:08.145Z,75.15
2022-08-22T08:25:54.549Z,70.35
2022-08-22T08:28:36.449Z,67.57
2022-08-22T08:31:11.822Z,67.96
2022-08-22T08:33:44.247Z,68.54
2022-08-22T08:36:26.491Z,66.72
2022-08-22T08:39:04.060Z,63.69
2022-08-22T08:41:47.629Z,66.26
2022-08-22T08:44:33.181Z,62.34
2022-08-22T08:47:17.332Z,63.00
2022-08-22T08:50:11.728Z,62.93
2022-08-22T08:53:14.184Z,63.54
2022-08-22T08:55:51.333Z,65.31
2022-08-22T08:58:41.127Z,69.00
2022-08-22T09:01:27.583Z,69.88
2022-08-22T09:04:35.940Z,64.94
2022-08-22T09:07:33.118Z,64.61
2022-08-22T09:10:44.465Z,68.27
2022-08-22T09:13:40.908Z,66.30
2022-08-22T09:16:26.895Z,62.77
2022-08-22T09:19:21.795Z,60.70
2022-08-22T09:22:14.553Z,66.17
2022-08-22T09:25:12.737Z,63.33
2022-08-22T09:27:52.707Z,60.71
2022-08-22T09:30:28.633Z,62.30
2022-08-22T09:33:03.771Z,60.36
2022-08-22T09:35:43.854Z,58.20
2022-08-22T09:38:29.380Z,58.23
2022-08-22T09:41:11.179Z,58.69
2022-08-22T09:43:46.603Z,55.89
2022-08-22T09:46:22.654Z,56.86
2022-08-22T09:49:07.978Z,56.90
2022-08-22T09:51:43.252Z,57.02
2022-08-22T09:54:31.256Z,59.23
2022-08-22T09:57:19.695Z,57.53
2022-08-22T10:00:14.770Z,56.05
2022-08-22T10:02:52.677Z,56.11
2022-08-22T10:05:40.263Z,53.72
2022-08-22T10:08:20.287Z,54.25
2022-08-22T10:11:11.922Z,54.98
2022-08-22T10:13:57.814Z,52.91
2022-08-22T10:17:07.222Z,52.06
2022-08-22T10:19:41.798Z,52.37
2022-08-22T10:22:40.564Z,51.39
2022-08-22T10:25:24.632Z,50.16
2022-08-22T10:28:01.866Z,49.42
2022-08-22T10:30:38.098Z,50.80
2022-08-22T10:33:14.556Z,50.52
2022-08-22T10:36:05.025Z,51.06
2022-08-22T10:38:44.147Z,50.67
2022-08-22T10:41:26.102Z,49.85
2022-08-22T10:44:04.127Z,50.58
2022-08-22T10:46:38.146Z,49.65
2022-08-22T10:49:17.591Z,48.40
2022-08-22T10:51:53.105Z,49.12
2022-08-22T10:54:38.594Z,49.82
2022-08-22T10:57:15.506Z,51.33
2022-08-22T11:00:01.047Z,50.35
2022-08-22T11:02:53.296Z,51.67
2022-08-22T11:05:33.898Z,50.10
2022-08-22T11:08:37.637Z,49.67
2022-08-22T11:11:19.417Z,49.63
2022-08-22T11:14:12.517Z,48.84
2022-08-22T11:16:57.039Z,48.69
2022-08-22T11:19:45.958Z,48.73
2022-08-22T11:22:29.416Z,47.82
2022-08-22T11:25:38.693Z,48.16
2022-08-22T11:28:43.385Z,48.45
2022-08-22T11:31:25.099Z,48.51
2022-08-22T11:34:01.284Z,48.28
2022-08-22T11:36:38.864Z,49.55
2022-08-22T11:39:18.991Z,48.27
2022-08-22T11:41:57.787Z,48.41
2022-08-22T11:44:34.331Z,48.22
2022-08-22T11:47:09.878Z,48.18
2022-08-22T11:49:52.249Z,48.04
2022-08-22T11:52:28.575Z,47.35
2022-08-22T11:55:32.634Z,48.42
2022-08-22T11:58:27.248Z,47.63
2022-08-22T12:01:03.829Z,48.44
2022-08-22T12:03:51.024Z,48.17
2022-08-22T12:06:50.701Z,48.34
2022-08-22T12:09:32.003Z,47.48
2022-08-22T12:12:31.306Z,47.76
2022-08-22T12:15:09.120Z,48.14
2022-08-22T12:18:26.801Z,47.45
2022-08-22T12:21:24.576Z,48.03
2022-08-22T12:24:11.364Z,47.82
2022-08-22T12:27:08.014Z,47.86
2022-08-22T12:29:45.425Z,48.03
2022-08-22T12:32:53.754Z,47.31
2022-08-22T12:35:41.956Z,47.95
2022-08-22T12:38:32.761Z,47.77
2022-08-22T12:41:34.816Z,48.01
2022-08-22T12:44:28.940Z,47.95
2022-08-22T12:47:29.218Z,47.66
2022-08-22T12:50:23.082Z,47.71
2022-08-22T12:53:11.037Z,47.82
2022-08-22T12:55:56.331Z,46.49
2022-08-22T12:58:43.433Z,47.66
2022-08-22T13:01:13.300Z,48.56
2022-08-22T13:03:47.380Z,48.47
2022-08-22T13:06:52.594Z,49.37
2022-08-22T13:09:29.042Z,50.00
2022-08-22T13:12:04.857Z,50.29
2022-08-22T13:14:35.349Z,49.78
2022-08-22T13:17:23.800Z,50.94
2022-08-22T13:20:02.497Z,52.23
2022-08-22T13:22:35.307Z,51.77
2022-08-22T13:25:09.105Z,51.45
2022-08-22T13:27:50.635Z,51.94
2022-08-22T13:30:23.273Z,52.36
2022-08-22T13:32:54.147Z,51.74
2022-08-22T13:35:25.744Z,52.04
2022-08-22T13:38:04.601Z,52.24
2022-08-22T13:40:37.249Z,51.48
2022-08-22T13:43:10.066Z,51.76
2022-08-22T13:45:41.945Z,52.29
2022-08-22T13:48:12.888Z,52.35
2022-08-22T13:50:58.808Z,53.08
2022-08-22T13:53:37.954Z,53.42
2022-08-22T13:56:15.773Z,53.57
2022-08-22T13:58:47.906Z,53.91
2022-08-22T14:01:34.797Z,54.58
2022-08-22T14:04:28.362Z,55.23
2022-08-22T14:07:23.806Z,55.78
2022-08-22T14:09:58.663Z,56.15
2022-08-22T14:12:33.908Z,56.38
2022-08-22T14:15:24.765Z,56.26
2022-08-22T14:17:57.840Z,56.43
2022-08-22T14:20:32.607Z,56.78
2022-08-22T14:23:05.409Z,56.81
2022-08-22T14:25:37.388Z,56.75
2022-08-22T14:28:12.477Z,57.06
2022-08-22T14:30:59.404Z,57.11
2022-08-22T14:33:35.219Z,57.16
2022-08-22T14:36:11.924Z,56.51
2022-08-22T14:38:48.470Z,56.60
2022-08-22T14:41:28.684Z,56.94
2022-08-22T14:44:26.638Z,57.78
2022-08-22T14:46:59.339Z,57.30
2022-08-22T14:49:38.201Z,57.17
2022-08-22T14:52:20.019Z,57.47
2022-08-22T14:54:48.946Z,57.44
2022-08-22T14:57:20.830Z,57.98
2022-08-22T14:59:53.685Z,58.44
2022-08-22T15:02:29.002Z,57.45
2022-08-22T15:05:01.803Z,57.12
2022-08-22T15:07:34.805Z,57.59
2022-08-22T15:10:11.851Z,58.00
2022-08-22T15:12:46.747Z,58.25
2022-08-22T15:15:30.886Z,58.01
2022-08-22T15:18:00.543Z,57.34
2022-08-22T15:20:34.113Z,57.61
2022-08-22T15:23:20.735Z,57.41
2022-08-22T15:26:00.029Z,57.57
2022-08-22T15:28:33.739Z,58.21
2022-08-22T15:31:21.170Z,58.77
2022-08-22T15:33:50.613Z,57.79
2022-08-22T15:36:22.635Z,58.19
2022-08-22T15:38:54.305Z,58.98
2022-08-22T15:41:44.859Z,58.57
2022-08-22T15:44:32.596Z,58.75
2022-08-22T15:47:24.288Z,59.13
2022-08-22T15:50:01.674Z,58.06
2022-08-22T15:52:37.034Z,60.10
2022-08-22T15:55:22.357Z,60.10
2022-08-22T15:58:02.548Z,60.36
2022-08-22T16:00:43.579Z,59.44
2022-08-22T16:03:26.783Z,59.42
2022-08-22T16:05:59.285Z,59.77
2022-08-22T16:08:32.781Z,60.05
2022-08-22T16:11:32.264Z,59.08
2022-08-22T16:14:21.249Z,58.56
2022-08-22T16:16:57.990Z,58.07
2022-08-22T16:19:29.519Z,58.90
2022-08-22T16:22:13.649Z,58.16
2022-08-22T16:25:10.708Z,56.82
2022-08-22T16:27:57.101Z,57.63
2022-08-22T16:30:36.221Z,57.54
2022-08-22T16:33:07.176Z,56.99
2022-08-22T16:36:37.510Z,57.19
2022-08-22T16:39:12.083Z,56.98
2022-08-22T16:41:43.332Z,57.53
2022-08-22T16:44:40.883Z,57.18
2022-08-22T16:47:13.535Z,56.49
2022-08-22T16:50:02.266Z,56.43
2022-08-22T16:52:53.270Z,56.38
2022-08-22T16:56:18.412Z,56.93
2022-08-22T16:59:22.805Z,56.29
2022-08-22T17:02:12.184Z,55.48
2022-08-22T17:04:51.818Z,56.26
2022-08-22T17:07:34.676Z,55.53
2022-08-22T17:10:21.009Z,55.61
2022-08-22T17:13:01.242Z,56.13
2022-08-22T17:15:38.318Z,54.93
2022-08-22T17:18:23.775Z,55.40
2022-08-22T17:21:02.358Z,55.24
2022-08-22T17:23:41.079Z,55.60
2022-08-22T17:26:21.088Z,55.47
2022-08-22T17:29:01.907Z,55.03
2022-08-22T17:31:37.110Z,55.03
2022-08-22T17:34:22.085Z,55.53
2022-08-22T17:37:03.850Z,54.21
2022-08-22T17:40:02.464Z,54.25
2022-08-22T17:42:46.051Z,53.77
2022-08-22T17:45:28.051Z,53.85
2022-08-22T17:48:03.023Z,53.48
2022-08-22T17:50:39.604Z,53.06
2022-08-22T17:53:16.027Z,53.32
2022-08-22T17:56:05.874Z,53.21
2022-08-22T17:58:44.665Z,52.46
2022-08-22T18:01:15.979Z,52.67
2022-08-22T18:03:51.776Z,53.86
2022-08-22T18:06:25.696Z,53.38
2022-08-22T18:09:13.784Z,53.81
2022-08-22T18:11:49.803Z,53.05
2022-08-22T18:14:31.002Z,53.22
2022-08-22T18:17:01.104Z,53.22
2022-08-22T18:19:43.447Z,53.30
2022-08-22T18:22:29.788Z,52.72
2022-08-22T18:25:04.711Z,52.70
2022-08-22T18:27:39.324Z,52.72
2022-08-22T18:30:19.808Z,52.71
2022-08-22T18:32:58.914Z,52.54
2022-08-22T18:35:37.041Z,52.82
2022-08-22T18:38:19.415Z,52.81
2022-08-22T18:40:53.792Z,52.53
2022-08-22T18:43:31.247Z,52.68
2022-08-22T18:46:26.924Z,53.17
2022-08-22T18:49:14.751Z,52.74
2022-08-22T18:51:44.869Z,53.41
2022-08-22T18:54:40.374Z,53.36
2022-08-22T18:57:31.293Z,53.37
2022-08-22T19:00:12.353Z,53.21
2022-08-22T19:03:14.298Z,53.38
2022-08-22T19:06:13.249Z,53.27
2022-08-22T19:08:59.037Z,53.49
2022-08-22T19:11:45.777Z,53.80
2022-08-22T19:14:28.265Z,53.90
2022-08-22T19:17:39.968Z,54.67
2022-08-22T19:20:35.017Z,53.68
2022-08-22T19:23:37.489Z,54.67
2022-08-22T19:26:29.695Z,54.58
2022-08-22T19:29:00.716Z,55.35
2022-08-22T19:31:49.026Z,56.09
2022-08-22T19:34:39.768Z,55.92
2022-08-22T19:37:33.559Z,56.52
2022-08-22T19:40:10.426Z,58.64
2022-08-22T19:42:43.352Z,56.83
2022-08-22T19:45:30.817Z,58.18
2022-08-22T19:48:02.288Z,58.81
2022-08-22T19:50:35.702Z,58.39
2022-08-22T19:53:26.579Z,59.23
2022-08-22T19:56:14.368Z,59.98
2022-08-22T19:59:03.632Z,60.90
2022-08-22T20:01:44.396Z,60.39
2022-08-22T20:04:37.708Z,59.30
2022-08-22T20:07:15.288Z,60.13
2022-08-22T20:09:57.852Z,60.79
2022-08-22T20:12:38.530Z,60.96
2022-08-22T20:15:19.458Z,60.24
2022-08-22T20:20:56.756Z,59.77
2022-08-22T20:23:30.279Z,58.24
2022-08-22T20:26:00.686Z,57.81
2022-08-22T20:28:36.636Z,58.15
2022-08-22T20:31:11.358Z,57.91
2022-08-22T20:33:43.109Z,58.13
2022-08-22T20:36:28.906Z,56.81
2022-08-22T20:39:01.625Z,57.10
2022-08-22T20:41:35.832Z,57.91
2022-08-22T20:44:14.150Z,57.86
2022-08-22T20:46:54.923Z,57.70
2022-08-22T20:49:26.418Z,57.42
2022-08-22T20:51:57.375Z,57.79
2022-08-22T20:54:28.791Z,58.30
2022-08-22T20:57:01.854Z,58.00
2022-08-22T20:59:36.128Z,58.42
2022-08-22T21:02:19.915Z,58.67
2022-08-22T21:04:52.938Z,58.44
2022-08-22T21:07:27.343Z,57.92
2022-08-22T21:10:22.606Z,58.50
2022-08-22T21:13:08.813Z,57.81
2022-08-22T21:15:39.844Z,58.17
2022-08-22T21:18:11.846Z,58.13
2022-08-22T21:20:41.962Z,58.59
2022-08-22T21:23:21.409Z,58.78
2022-08-22T21:25:56.737Z,59.32
2022-08-22T21:28:35.789Z,59.25
2022-08-22T21:31:13.932Z,59.98
2022-08-22T21:33:45.126Z,59.61
2022-08-22T21:36:18.404Z,59.67
2022-08-22T21:38:52.547Z,60.33
2022-08-22T21:41:27.233Z,59.62
2022-08-22T21:43:56.958Z,59.56
2022-08-22T21:46:28.692Z,58.96
2022-08-22T21:49:02.117Z,58.60
2022-08-22T21:51:40.803Z,58.59
2022-08-22T21:54:46.558Z,59.10
2022-08-22T21:57:21.146Z,59.51
2022-08-22T21:59:59.812Z,59.84
2022-08-22T22:02:36.468Z,59.51
2022-08-22T22:05:11.289Z,59.09
2022-08-22T22:07:40.892Z,58.80
2022-08-22T22:10:12.130Z,59.20
2022-08-22T22:12:44.832Z,58.88
2022-08-22T22:15:17.347Z,58.85
2022-08-22T22:17:45.756Z,59.09
2022-08-22T22:20:15.880Z,59.25
2022-08-22T22:22:45.816Z,59.51
2022-08-22T22:25:38.982Z,60.38
2022-08-22T22:28:08.269Z,60.14
2022-08-22T22:30:37.990Z,59.71
2022-08-22T22:33:06.513Z,59.84
2022-08-22T22:35:35.343Z,59.82
2022-08-22T22:38:03.569Z,59.81
2022-08-22T22:40:31.889Z,59.92
2022-08-22T22:43:00.100Z,60.06
2022-08-22T22:45:28.384Z,60.91
2022-08-22T22:47:58.385Z,61.08
2022-08-22T22:50:26.852Z,60.52
2022-08-22T22:52:55.284Z,61.63
2022-08-22T22:55:25.284Z,62.06
2022-08-22T22:57:59.250Z,62.79
2022-08-22T23:00:30.952Z,63.07
2022-08-22T23:03:02.456Z,63.11
2022-08-22T23:05:31.301Z,63.32
2022-08-22T23:08:00.465Z,64.02
2022-08-22T23:10:30.600Z,63.93
2022-08-22T23:12:58.951Z,66.54
2022-08-22T23:15:27.588Z,66.79
2022-08-22T23:17:55.934Z,67.72
2022-08-22T23:20:25.755Z,67.95
2022-08-22T23:22:53.952Z,70.16
2022-08-22T23:25:22.104Z,71.41
2022-08-22T23:27:52.256Z,75.42
2022-08-22T23:30:21.453Z,76.33
2022-08-22T23:32:49.823Z,77.61
2022-08-22T23:35:18.205Z,76.65
2022-08-22T23:37:47.775Z,76.51
2022-08-22T23:40:16.046Z,77.50
2022-08-22T23:42:44.290Z,73.78
2022-08-22T23:45:12.730Z,72.65
2022-08-22T23:47:40.956Z,74.69
2022-08-22T23:50:09.690Z,74.12
2022-08-22T23:52:37.838Z,75.83
2022-08-22T23:55:08.435Z,76.48
2022-08-22T23:57:36.889Z,76.38
